sensor_id;sensor_type;location;lat;lon;timestamp;P1;durP1;ratioP1;P2;durP2;ratioP2
49784;SDS011;35679;38.732;-121.358;2023-02-15T00:01:29;2.00;;;1.90;;
49784;SDS011;35679;38.732;-121.358;2023-02-15T00:04:20;2.10;;;2.00;;
49784;SDS011;35679;38.732;-121.358;2023-02-15T00:07:12;3.05;;;1.80;;
49784;SDS011;35679;38.732;-121.358;2023-02-15T00:10:07;2.95;;;2.10;;
49784;SDS011;35679;38.732;-121.358;2023-02-15T00:12:59;2.85;;;2.00;;
49784;SDS011;35679;38.732;-121.358;2023-02-15T00:15:49;2.50;;;2.30;;
49784;SDS011;35679;38.732;-121.358;2023-02-15T00:18:39;2.10;;;2.00;;
49784;SDS011;35679;38.732;-121.358;2023-02-15T00:21:29;2.33;;;2.13;;
49784;SDS011;35679;38.732;-121.358;2023-02-15T00:24:20;1.90;;;1.80;;
49784;SDS011;35679;38.732;-121.358;2023-02-15T00:27:09;2.13;;;2.00;;
49784;SDS011;35679;38.732;-121.358;2023-02-15T00:30:02;1.92;;;1.83;;
49784;SDS011;35679;38.732;-121.358;2023-02-15T00:32:52;1.80;;;1.70;;
49784;SDS011;35679;38.732;-121.358;2023-02-15T00:35:42;2.00;;;1.77;;
49784;SDS011;35679;38.732;-121.358;2023-02-15T00:38:31;2.08;;;1.92;;
49784;SDS011;35679;38.732;-121.358;2023-02-15T00:41:22;2.20;;;2.00;;
49784;SDS011;35679;38.732;-121.358;2023-02-15T00:44:14;1.83;;;1.73;;
49784;SDS011;35679;38.732;-121.358;2023-02-15T00:47:04;3.17;;;1.88;;
49784;SDS011;35679;38.732;-121.358;2023-02-15T00:49:54;2.15;;;1.75;;
49784;SDS011;35679;38.732;-121.358;2023-02-15T00:52:43;2.42;;;1.98;;
49784;SDS011;35679;38.732;-121.358;2023-02-15T00:55:33;2.40;;;2.20;;
49784;SDS011;35679;38.732;-121.358;2023-02-15T00:58:22;2.55;;;2.22;;
49784;SDS011;35679;38.732;-121.358;2023-02-15T01:01:15;2.28;;;2.17;;
49784;SDS011;35679;38.732;-121.358;2023-02-15T01:04:05;1.95;;;1.90;;
49784;SDS011;35679;38.732;-121.358;2023-02-15T01:06:55;2.10;;;2.00;;
49784;SDS011;35679;38.732;-121.358;2023-02-15T01:09:45;2.13;;;2.03;;
49784;SDS011;35679;38.732;-121.358;2023-02-15T01:12:34;2.22;;;2.10;;
49784;SDS011;35679;38.732;-121.358;2023-02-15T01:15:26;2.33;;;2.13;;
49784;SDS011;35679;38.732;-121.358;2023-02-15T01:18:15;2.15;;;2.00;;
49784;SDS011;35679;38.732;-121.358;2023-02-15T01:21:16;2.10;;;2.00;;
49784;SDS011;35679;38.732;-121.358;2023-02-15T01:24:11;2.17;;;2.10;;
49784;SDS011;35679;38.732;-121.358;2023-02-15T01:27:01;2.03;;;1.77;;
49784;SDS011;35679;38.732;-121.358;2023-02-15T01:29:51;1.98;;;1.98;;
49784;SDS011;35679;38.732;-121.358;2023-02-15T01:32:42;1.88;;;1.83;;
49784;SDS011;35679;38.732;-121.358;2023-02-15T01:35:31;2.40;;;1.83;;
49784;SDS011;35679;38.732;-121.358;2023-02-15T01:38:21;2.08;;;2.08;;
49784;SDS011;35679;38.732;-121.358;2023-02-15T01:41:11;1.90;;;1.80;;
49784;SDS011;35679;38.732;-121.358;2023-02-15T01:50:54;2.00;;;1.90;;
49784;SDS011;35679;38.732;-121.358;2023-02-15T01:53:57;2.03;;;1.80;;
49784;SDS011;35679;38.732;-121.358;2023-02-15T01:56:51;2.17;;;1.98;;
49784;SDS011;35679;38.732;-121.358;2023-02-15T01:59:45;2.00;;;1.90;;
49784;SDS011;35679;38.732;-121.358;2023-02-15T02:02:40;2.05;;;1.98;;
49784;SDS011;35679;38.732;-121.358;2023-02-15T02:05:34;2.33;;;2.03;;
49784;SDS011;35679;38.732;-121.358;2023-02-15T02:08:25;2.03;;;1.92;;
49784;SDS011;35679;38.732;-121.358;2023-02-15T02:11:15;2.00;;;1.90;;
49784;SDS011;35679;38.732;-121.358;2023-02-15T02:14:06;2.35;;;2.13;;
49784;SDS011;35679;38.732;-121.358;2023-02-15T02:17:15;2.75;;;1.90;;
49784;SDS011;35679;38.732;-121.358;2023-02-15T02:26:54;2.05;;;1.95;;
49784;SDS011;35679;38.732;-121.358;2023-02-15T02:30:09;2.35;;;2.05;;
49784;SDS011;35679;38.732;-121.358;2023-02-15T02:39:04;1.90;;;1.80;;
49784;SDS011;35679;38.732;-121.358;2023-02-15T02:45:39;2.25;;;2.15;;
49784;SDS011;35679;38.732;-121.358;2023-02-15T02:48:38;2.00;;;1.90;;
49784;SDS011;35679;38.732;-121.358;2023-02-15T02:51:29;2.00;;;1.92;;
49784;SDS011;35679;38.732;-121.358;2023-02-15T02:54:19;1.92;;;1.92;;
49784;SDS011;35679;38.732;-121.358;2023-02-15T02:57:08;2.60;;;2.15;;
49784;SDS011;35679;38.732;-121.358;2023-02-15T02:59:58;2.30;;;2.10;;
49784;SDS011;35679;38.732;-121.358;2023-02-15T03:02:53;2.15;;;2.10;;
49784;SDS011;35679;38.732;-121.358;2023-02-15T03:06:00;1.98;;;1.88;;
49784;SDS011;35679;38.732;-121.358;2023-02-15T03:08:55;2.10;;;2.00;;
49784;SDS011;35679;38.732;-121.358;2023-02-15T03:11:51;2.40;;;2.30;;
49784;SDS011;35679;38.732;-121.358;2023-02-15T03:14:42;2.10;;;2.00;;
49784;SDS011;35679;38.732;-121.358;2023-02-15T03:17:38;2.10;;;2.00;;
49784;SDS011;35679;38.732;-121.358;2023-02-15T03:20:35;2.08;;;1.98;;
49784;SDS011;35679;38.732;-121.358;2023-02-15T03:23:26;1.98;;;1.95;;
49784;SDS011;35679;38.732;-121.358;2023-02-15T03:26:20;2.10;;;2.00;;
49784;SDS011;35679;38.732;-121.358;2023-02-15T03:29:12;1.80;;;1.80;;
49784;SDS011;35679;38.732;-121.358;2023-02-15T03:32:05;1.65;;;1.65;;
49784;SDS011;35679;38.732;-121.358;2023-02-15T03:34:59;2.00;;;1.90;;
49784;SDS011;35679;38.732;-121.358;2023-02-15T03:37:59;2.00;;;1.90;;
49784;SDS011;35679;38.732;-121.358;2023-02-15T03:40:50;1.90;;;1.80;;
49784;SDS011;35679;38.732;-121.358;2023-02-15T03:44:00;1.95;;;1.90;;
49784;SDS011;35679;38.732;-121.358;2023-02-15T03:47:00;2.25;;;2.15;;
49784;SDS011;35679;38.732;-121.358;2023-02-15T03:50:02;1.98;;;1.98;;
49784;SDS011;35679;38.732;-121.358;2023-02-15T03:53:19;2.22;;;2.13;;
49784;SDS011;35679;38.732;-121.358;2023-02-15T03:56:11;2.00;;;2.00;;
49784;SDS011;35679;38.732;-121.358;2023-02-15T03:59:01;2.13;;;2.03;;
49784;SDS011;35679;38.732;-121.358;2023-02-15T04:02:16;1.80;;;1.70;;
49784;SDS011;35679;38.732;-121.358;2023-02-15T04:05:11;2.20;;;2.10;;
49784;SDS011;35679;38.732;-121.358;2023-02-15T04:08:01;2.00;;;1.80;;
49784;SDS011;35679;38.732;-121.358;2023-02-15T04:10:50;2.15;;;2.05;;
49784;SDS011;35679;38.732;-121.358;2023-02-15T04:13:45;1.90;;;1.80;;
49784;SDS011;35679;38.732;-121.358;2023-02-15T04:16:34;1.90;;;1.80;;
49784;SDS011;35679;38.732;-121.358;2023-02-15T04:19:24;2.08;;;1.98;;
49784;SDS011;35679;38.732;-121.358;2023-02-15T04:22:32;2.00;;;1.90;;
49784;SDS011;35679;38.732;-121.358;2023-02-15T04:25:39;1.83;;;1.80;;
49784;SDS011;35679;38.732;-121.358;2023-02-15T04:28:30;1.85;;;1.77;;
49784;SDS011;35679;38.732;-121.358;2023-02-15T04:31:19;1.70;;;1.70;;
49784;SDS011;35679;38.732;-121.358;2023-02-15T04:34:10;2.08;;;1.90;;
49784;SDS011;35679;38.732;-121.358;2023-02-15T04:36:59;1.70;;;1.70;;
49784;SDS011;35679;38.732;-121.358;2023-02-15T04:39:49;1.73;;;1.63;;
49784;SDS011;35679;38.732;-121.358;2023-02-15T04:42:39;1.90;;;1.80;;
49784;SDS011;35679;38.732;-121.358;2023-02-15T04:45:28;1.83;;;1.70;;
49784;SDS011;35679;38.732;-121.358;2023-02-15T04:48:18;2.17;;;1.90;;
49784;SDS011;35679;38.732;-121.358;2023-02-15T04:51:07;1.70;;;1.70;;
49784;SDS011;35679;38.732;-121.358;2023-02-15T04:53:58;1.63;;;1.63;;
49784;SDS011;35679;38.732;-121.358;2023-02-15T04:56:47;1.92;;;1.85;;
49784;SDS011;35679;38.732;-121.358;2023-02-15T04:59:37;1.85;;;1.75;;
49784;SDS011;35679;38.732;-121.358;2023-02-15T05:02:26;1.88;;;1.83;;
49784;SDS011;35679;38.732;-121.358;2023-02-15T05:05:16;1.80;;;1.70;;
49784;SDS011;35679;38.732;-121.358;2023-02-15T05:08:06;1.98;;;1.88;;
49784;SDS011;35679;38.732;-121.358;2023-02-15T05:10:56;1.80;;;1.80;;
49784;SDS011;35679;38.732;-121.358;2023-02-15T05:13:46;2.22;;;2.13;;
49784;SDS011;35679;38.732;-121.358;2023-02-15T05:16:37;1.90;;;1.80;;
49784;SDS011;35679;38.732;-121.358;2023-02-15T05:19:29;1.83;;;1.83;;
49784;SDS011;35679;38.732;-121.358;2023-02-15T05:22:19;1.77;;;1.77;;
49784;SDS011;35679;38.732;-121.358;2023-02-15T05:25:09;1.83;;;1.83;;
49784;SDS011;35679;38.732;-121.358;2023-02-15T05:28:17;1.70;;;1.70;;
49784;SDS011;35679;38.732;-121.358;2023-02-15T05:31:12;2.00;;;1.90;;
49784;SDS011;35679;38.732;-121.358;2023-02-15T05:34:03;1.80;;;1.80;;
49784;SDS011;35679;38.732;-121.358;2023-02-15T05:36:53;1.92;;;1.90;;
49784;SDS011;35679;38.732;-121.358;2023-02-15T05:39:43;2.00;;;1.90;;
49784;SDS011;35679;38.732;-121.358;2023-02-15T05:42:32;2.05;;;1.95;;
49784;SDS011;35679;38.732;-121.358;2023-02-15T05:45:22;1.80;;;1.70;;
49784;SDS011;35679;38.732;-121.358;2023-02-15T05:48:12;2.10;;;2.00;;
49784;SDS011;35679;38.732;-121.358;2023-02-15T05:51:03;1.85;;;1.85;;
49784;SDS011;35679;38.732;-121.358;2023-02-15T05:53:52;2.22;;;2.13;;
49784;SDS011;35679;38.732;-121.358;2023-02-15T05:56:43;1.98;;;1.98;;
49784;SDS011;35679;38.732;-121.358;2023-02-15T05:59:32;2.08;;;1.98;;
49784;SDS011;35679;38.732;-121.358;2023-02-15T06:02:21;2.00;;;2.00;;
49784;SDS011;35679;38.732;-121.358;2023-02-15T06:05:11;2.22;;;2.13;;
49784;SDS011;35679;38.732;-121.358;2023-02-15T06:08:00;8.07;;;2.28;;
49784;SDS011;35679;38.732;-121.358;2023-02-15T06:10:52;2.10;;;2.00;;
49784;SDS011;35679;38.732;-121.358;2023-02-15T06:13:41;2.10;;;2.00;;
49784;SDS011;35679;38.732;-121.358;2023-02-15T06:16:31;2.15;;;2.10;;
49784;SDS011;35679;38.732;-121.358;2023-02-15T06:19:20;2.00;;;1.90;;
49784;SDS011;35679;38.732;-121.358;2023-02-15T06:22:11;1.90;;;1.90;;
49784;SDS011;35679;38.732;-121.358;2023-02-15T06:25:02;2.10;;;2.00;;
49784;SDS011;35679;38.732;-121.358;2023-02-15T06:27:51;2.30;;;1.92;;
49784;SDS011;35679;38.732;-121.358;2023-02-15T06:30:41;2.22;;;2.17;;
49784;SDS011;35679;38.732;-121.358;2023-02-15T06:33:32;2.25;;;1.90;;
49784;SDS011;35679;38.732;-121.358;2023-02-15T06:36:22;2.05;;;1.95;;
49784;SDS011;35679;38.732;-121.358;2023-02-15T06:39:12;2.65;;;2.55;;
49784;SDS011;35679;38.732;-121.358;2023-02-15T06:42:01;2.10;;;2.10;;
49784;SDS011;35679;38.732;-121.358;2023-02-15T06:44:50;2.10;;;2.10;;
49784;SDS011;35679;38.732;-121.358;2023-02-15T06:47:40;2.40;;;2.20;;
49784;SDS011;35679;38.732;-121.358;2023-02-15T06:50:29;1.95;;;1.95;;
49784;SDS011;35679;38.732;-121.358;2023-02-15T06:53:19;1.92;;;1.88;;
49784;SDS011;35679;38.732;-121.358;2023-02-15T06:56:09;1.80;;;1.80;;
49784;SDS011;35679;38.732;-121.358;2023-02-15T06:58:59;2.33;;;2.00;;
49784;SDS011;35679;38.732;-121.358;2023-02-15T07:01:52;1.95;;;1.85;;
49784;SDS011;35679;38.732;-121.358;2023-02-15T07:04:48;2.10;;;2.00;;
49784;SDS011;35679;38.732;-121.358;2023-02-15T07:07:38;2.13;;;2.13;;
49784;SDS011;35679;38.732;-121.358;2023-02-15T07:10:28;2.05;;;1.98;;
49784;SDS011;35679;38.732;-121.358;2023-02-15T07:13:18;1.85;;;1.83;;
49784;SDS011;35679;38.732;-121.358;2023-02-15T07:16:08;2.17;;;2.00;;
49784;SDS011;35679;38.732;-121.358;2023-02-15T07:18:58;2.17;;;2.17;;
49784;SDS011;35679;38.732;-121.358;2023-02-15T07:21:48;2.15;;;2.15;;
49784;SDS011;35679;38.732;-121.358;2023-02-15T07:24:37;2.25;;;2.15;;
49784;SDS011;35679;38.732;-121.358;2023-02-15T07:27:27;2.35;;;2.00;;
49784;SDS011;35679;38.732;-121.358;2023-02-15T07:30:16;2.25;;;2.15;;
49784;SDS011;35679;38.732;-121.358;2023-02-15T07:33:06;2.35;;;2.25;;
49784;SDS011;35679;38.732;-121.358;2023-02-15T07:36:18;2.20;;;2.10;;
49784;SDS011;35679;38.732;-121.358;2023-02-15T07:39:08;2.25;;;2.20;;
49784;SDS011;35679;38.732;-121.358;2023-02-15T07:41:59;2.08;;;2.03;;
49784;SDS011;35679;38.732;-121.358;2023-02-15T07:44:50;2.35;;;2.15;;
49784;SDS011;35679;38.732;-121.358;2023-02-15T07:47:41;2.08;;;2.08;;
49784;SDS011;35679;38.732;-121.358;2023-02-15T07:50:30;2.20;;;2.10;;
49784;SDS011;35679;38.732;-121.358;2023-02-15T07:53:21;2.10;;;2.00;;
49784;SDS011;35679;38.732;-121.358;2023-02-15T07:56:11;2.17;;;2.08;;
49784;SDS011;35679;38.732;-121.358;2023-02-15T07:59:05;2.15;;;2.05;;
49784;SDS011;35679;38.732;-121.358;2023-02-15T08:01:56;2.20;;;2.10;;
49784;SDS011;35679;38.732;-121.358;2023-02-15T08:04:45;2.20;;;2.10;;
49784;SDS011;35679;38.732;-121.358;2023-02-15T08:07:35;2.20;;;2.10;;
49784;SDS011;35679;38.732;-121.358;2023-02-15T08:10:24;2.40;;;2.30;;
49784;SDS011;35679;38.732;-121.358;2023-02-15T08:13:34;2.33;;;2.22;;
49784;SDS011;35679;38.732;-121.358;2023-02-15T08:16:24;2.28;;;2.17;;
49784;SDS011;35679;38.732;-121.358;2023-02-15T08:19:17;2.20;;;2.10;;
49784;SDS011;35679;38.732;-121.358;2023-02-15T08:22:10;2.42;;;2.33;;
49784;SDS011;35679;38.732;-121.358;2023-02-15T08:27:51;2.30;;;2.20;;
49784;SDS011;35679;38.732;-121.358;2023-02-15T08:30:41;2.08;;;1.98;;
49784;SDS011;35679;38.732;-121.358;2023-02-15T08:33:31;2.13;;;2.03;;
49784;SDS011;35679;38.732;-121.358;2023-02-15T08:36:30;2.38;;;2.28;;
49784;SDS011;35679;38.732;-121.358;2023-02-15T08:39:20;2.13;;;2.03;;
49784;SDS011;35679;38.732;-121.358;2023-02-15T08:42:10;2.03;;;1.92;;
49784;SDS011;35679;38.732;-121.358;2023-02-15T08:45:00;2.00;;;2.00;;
49784;SDS011;35679;38.732;-121.358;2023-02-15T08:47:49;2.10;;;2.10;;
49784;SDS011;35679;38.732;-121.358;2023-02-15T08:50:39;2.40;;;2.28;;
49784;SDS011;35679;38.732;-121.358;2023-02-15T08:53:28;2.03;;;2.00;;
49784;SDS011;35679;38.732;-121.358;2023-02-15T08:56:18;1.98;;;1.98;;
49784;SDS011;35679;38.732;-121.358;2023-02-15T08:59:14;2.05;;;1.98;;
49784;SDS011;35679;38.732;-121.358;2023-02-15T09:02:09;2.17;;;2.10;;
49784;SDS011;35679;38.732;-121.358;2023-02-15T09:04:59;2.22;;;2.13;;
49784;SDS011;35679;38.732;-121.358;2023-02-15T09:07:48;2.20;;;2.10;;
49784;SDS011;35679;38.732;-121.358;2023-02-15T09:10:37;2.30;;;2.20;;
49784;SDS011;35679;38.732;-121.358;2023-02-15T09:13:27;2.35;;;2.25;;
49784;SDS011;35679;38.732;-121.358;2023-02-15T09:16:16;2.53;;;2.42;;
49784;SDS011;35679;38.732;-121.358;2023-02-15T09:19:06;2.10;;;2.10;;
49784;SDS011;35679;38.732;-121.358;2023-02-15T09:21:56;2.20;;;2.10;;
49784;SDS011;35679;38.732;-121.358;2023-02-15T09:24:46;2.35;;;2.25;;
49784;SDS011;35679;38.732;-121.358;2023-02-15T09:27:35;2.40;;;2.30;;
49784;SDS011;35679;38.732;-121.358;2023-02-15T09:30:25;2.83;;;2.38;;
49784;SDS011;35679;38.732;-121.358;2023-02-15T09:33:14;2.25;;;2.15;;
49784;SDS011;35679;38.732;-121.358;2023-02-15T09:36:04;2.10;;;2.10;;
49784;SDS011;35679;38.732;-121.358;2023-02-15T09:39:15;2.38;;;2.33;;
49784;SDS011;35679;38.732;-121.358;2023-02-15T09:42:06;2.08;;;1.98;;
49784;SDS011;35679;38.732;-121.358;2023-02-15T09:45:13;2.20;;;2.10;;
49784;SDS011;35679;38.732;-121.358;2023-02-15T09:51:31;2.20;;;2.10;;
49784;SDS011;35679;38.732;-121.358;2023-02-15T09:54:44;3.00;;;2.80;;
49784;SDS011;35679;38.732;-121.358;2023-02-15T09:57:49;2.40;;;2.30;;
49784;SDS011;35679;38.732;-121.358;2023-02-15T10:13:38;2.42;;;2.33;;
49784;SDS011;35679;38.732;-121.358;2023-02-15T10:25:42;2.40;;;2.28;;
49784;SDS011;35679;38.732;-121.358;2023-02-15T10:31:43;2.40;;;2.25;;
49784;SDS011;35679;38.732;-121.358;2023-02-15T10:35:02;2.45;;;2.35;;
49784;SDS011;35679;38.732;-121.358;2023-02-15T10:38:23;2.38;;;2.28;;
49784;SDS011;35679;38.732;-121.358;2023-02-15T10:41:29;2.10;;;2.10;;
49784;SDS011;35679;38.732;-121.358;2023-02-15T10:44:44;2.33;;;2.22;;
49784;SDS011;35679;38.732;-121.358;2023-02-15T10:47:41;2.47;;;2.38;;
49784;SDS011;35679;38.732;-121.358;2023-02-15T10:50:57;2.33;;;2.22;;
49784;SDS011;35679;38.732;-121.358;2023-02-15T11:09:10;2.60;;;2.40;;
49784;SDS011;35679;38.732;-121.358;2023-02-15T11:12:01;2.40;;;2.30;;
49784;SDS011;35679;38.732;-121.358;2023-02-15T11:14:58;2.90;;;2.70;;
49784;SDS011;35679;38.732;-121.358;2023-02-15T11:24:37;2.50;;;2.40;;
49784;SDS011;35679;38.732;-121.358;2023-02-15T11:27:31;2.60;;;2.50;;
49784;SDS011;35679;38.732;-121.358;2023-02-15T11:30:22;2.60;;;2.50;;
49784;SDS011;35679;38.732;-121.358;2023-02-15T11:33:18;2.60;;;2.50;;
49784;SDS011;35679;38.732;-121.358;2023-02-15T11:36:23;2.53;;;2.42;;
49784;SDS011;35679;38.732;-121.358;2023-02-15T11:39:17;2.60;;;2.50;;
49784;SDS011;35679;38.732;-121.358;2023-02-15T11:42:13;2.50;;;2.40;;
49784;SDS011;35679;38.732;-121.358;2023-02-15T11:45:18;2.40;;;2.30;;
49784;SDS011;35679;38.732;-121.358;2023-02-15T11:48:12;2.40;;;2.30;;
49784;SDS011;35679;38.732;-121.358;2023-02-15T11:51:03;2.30;;;2.20;;
49784;SDS011;35679;38.732;-121.358;2023-02-15T11:53:53;2.40;;;2.30;;
49784;SDS011;35679;38.732;-121.358;2023-02-15T11:56:43;2.60;;;2.50;;
49784;SDS011;35679;38.732;-121.358;2023-02-15T11:59:34;2.25;;;2.20;;
49784;SDS011;35679;38.732;-121.358;2023-02-15T12:02:25;2.50;;;2.40;;
49784;SDS011;35679;38.732;-121.358;2023-02-15T12:05:19;2.45;;;2.22;;
49784;SDS011;35679;38.732;-121.358;2023-02-15T12:08:19;2.45;;;2.35;;
49784;SDS011;35679;38.732;-121.358;2023-02-15T12:11:15;2.53;;;2.42;;
49784;SDS011;35679;38.732;-121.358;2023-02-15T12:14:10;2.63;;;2.53;;
49784;SDS011;35679;38.732;-121.358;2023-02-15T12:17:03;2.40;;;2.30;;
49784;SDS011;35679;38.732;-121.358;2023-02-15T12:20:48;2.30;;;2.20;;
49784;SDS011;35679;38.732;-121.358;2023-02-15T12:23:18;2.50;;;2.40;;
49784;SDS011;35679;38.732;-121.358;2023-02-15T12:26:08;2.53;;;2.42;;
49784;SDS011;35679;38.732;-121.358;2023-02-15T12:28:59;2.65;;;2.50;;
49784;SDS011;35679;38.732;-121.358;2023-02-15T12:31:55;2.50;;;2.40;;
49784;SDS011;35679;38.732;-121.358;2023-02-15T12:34:46;2.50;;;2.40;;
49784;SDS011;35679;38.732;-121.358;2023-02-15T12:37:36;2.67;;;2.58;;
49784;SDS011;35679;38.732;-121.358;2023-02-15T12:40:27;2.53;;;2.42;;
49784;SDS011;35679;38.732;-121.358;2023-02-15T12:43:30;2.25;;;2.25;;
49784;SDS011;35679;38.732;-121.358;2023-02-15T12:49:19;2.60;;;2.45;;
49784;SDS011;35679;38.732;-121.358;2023-02-15T12:55:11;2.40;;;2.30;;
49784;SDS011;35679;38.732;-121.358;2023-02-15T12:58:19;2.60;;;2.50;;
49784;SDS011;35679;38.732;-121.358;2023-02-15T13:01:12;2.50;;;2.30;;
49784;SDS011;35679;38.732;-121.358;2023-02-15T13:04:05;2.40;;;2.20;;
49784;SDS011;35679;38.732;-121.358;2023-02-15T13:07:03;2.58;;;2.47;;
49784;SDS011;35679;38.732;-121.358;2023-02-15T13:09:52;2.20;;;2.20;;
49784;SDS011;35679;38.732;-121.358;2023-02-15T13:12:42;2.63;;;2.42;;
49784;SDS011;35679;38.732;-121.358;2023-02-15T13:15:36;2.20;;;2.10;;
49784;SDS011;35679;38.732;-121.358;2023-02-15T13:18:33;2.95;;;2.75;;
49784;SDS011;35679;38.732;-121.358;2023-02-15T13:21:26;2.45;;;2.35;;
49784;SDS011;35679;38.732;-121.358;2023-02-15T13:24:27;2.30;;;2.20;;
49784;SDS011;35679;38.732;-121.358;2023-02-15T13:27:22;2.42;;;2.33;;
49784;SDS011;35679;38.732;-121.358;2023-02-15T13:39:20;2.15;;;2.10;;
49784;SDS011;35679;38.732;-121.358;2023-02-15T13:58:22;2.58;;;2.45;;
49784;SDS011;35679;38.732;-121.358;2023-02-15T14:04:37;2.58;;;2.40;;
49784;SDS011;35679;38.732;-121.358;2023-02-15T14:17:20;2.35;;;2.30;;
49784;SDS011;35679;38.732;-121.358;2023-02-15T14:20:37;2.38;;;2.28;;
49784;SDS011;35679;38.732;-121.358;2023-02-15T14:23:48;2.50;;;2.40;;
49784;SDS011;35679;38.732;-121.358;2023-02-15T14:26:47;2.60;;;2.50;;
49784;SDS011;35679;38.732;-121.358;2023-02-15T14:32:43;2.30;;;2.20;;
49784;SDS011;35679;38.732;-121.358;2023-02-15T14:35:36;2.40;;;2.30;;
49784;SDS011;35679;38.732;-121.358;2023-02-15T14:41:49;2.50;;;2.40;;
49784;SDS011;35679;38.732;-121.358;2023-02-15T14:45:34;2.60;;;2.50;;
49784;SDS011;35679;38.732;-121.358;2023-02-15T14:48:10;2.65;;;2.55;;
49784;SDS011;35679;38.732;-121.358;2023-02-15T14:51:05;2.97;;;2.85;;
49784;SDS011;35679;38.732;-121.358;2023-02-15T14:53:54;2.38;;;2.28;;
49784;SDS011;35679;38.732;-121.358;2023-02-15T14:56:45;2.60;;;2.50;;
49784;SDS011;35679;38.732;-121.358;2023-02-15T15:05:33;2.42;;;2.25;;
49784;SDS011;35679;38.732;-121.358;2023-02-15T15:08:29;2.65;;;2.38;;
49784;SDS011;35679;38.732;-121.358;2023-02-15T15:23:42;2.22;;;2.03;;
49784;SDS011;35679;38.732;-121.358;2023-02-15T15:26:33;2.30;;;2.20;;
49784;SDS011;35679;38.732;-121.358;2023-02-15T15:29:43;2.33;;;2.22;;
49784;SDS011;35679;38.732;-121.358;2023-02-15T15:32:32;2.03;;;2.00;;
49784;SDS011;35679;38.732;-121.358;2023-02-15T15:48:33;2.38;;;2.28;;
49784;SDS011;35679;38.732;-121.358;2023-02-15T15:51:30;2.17;;;2.08;;
49784;SDS011;35679;38.732;-121.358;2023-02-15T15:54:22;2.00;;;1.98;;
49784;SDS011;35679;38.732;-121.358;2023-02-15T15:57:38;2.60;;;2.50;;
49784;SDS011;35679;38.732;-121.358;2023-02-15T16:03:35;2.20;;;2.10;;
49784;SDS011;35679;38.732;-121.358;2023-02-15T16:06:38;2.35;;;2.22;;
49784;SDS011;35679;38.732;-121.358;2023-02-15T16:09:28;2.22;;;2.13;;
49784;SDS011;35679;38.732;-121.358;2023-02-15T16:12:18;2.13;;;2.03;;
49784;SDS011;35679;38.732;-121.358;2023-02-15T16:15:17;2.33;;;2.22;;
49784;SDS011;35679;38.732;-121.358;2023-02-15T16:18:14;2.10;;;2.10;;
49784;SDS011;35679;38.732;-121.358;2023-02-15T16:21:05;1.98;;;1.98;;
49784;SDS011;35679;38.732;-121.358;2023-02-15T16:27:07;2.25;;;2.15;;
49784;SDS011;35679;38.732;-121.358;2023-02-15T16:33:16;2.45;;;2.35;;
49784;SDS011;35679;38.732;-121.358;2023-02-15T16:39:17;2.13;;;2.05;;
49784;SDS011;35679;38.732;-121.358;2023-02-15T16:42:08;2.30;;;2.20;;
49784;SDS011;35679;38.732;-121.358;2023-02-15T16:48:01;2.28;;;2.17;;
49784;SDS011;35679;38.732;-121.358;2023-02-15T16:50:56;2.20;;;2.10;;
49784;SDS011;35679;38.732;-121.358;2023-02-15T16:53:47;2.15;;;2.05;;
49784;SDS011;35679;38.732;-121.358;2023-02-15T16:56:37;2.33;;;2.20;;
49784;SDS011;35679;38.732;-121.358;2023-02-15T16:59:39;2.40;;;2.20;;
49784;SDS011;35679;38.732;-121.358;2023-02-15T17:02:33;2.20;;;2.10;;
49784;SDS011;35679;38.732;-121.358;2023-02-15T17:05:44;2.50;;;2.30;;
49784;SDS011;35679;38.732;-121.358;2023-02-15T17:08:44;2.42;;;2.33;;
49784;SDS011;35679;38.732;-121.358;2023-02-15T17:11:35;2.40;;;2.30;;
49784;SDS011;35679;38.732;-121.358;2023-02-15T17:14:30;2.60;;;2.50;;
49784;SDS011;35679;38.732;-121.358;2023-02-15T17:17:20;2.40;;;2.30;;
49784;SDS011;35679;38.732;-121.358;2023-02-15T17:20:12;2.42;;;2.33;;
49784;SDS011;35679;38.732;-121.358;2023-02-15T17:23:06;2.65;;;2.45;;
49784;SDS011;35679;38.732;-121.358;2023-02-15T17:25:56;2.47;;;2.38;;
49784;SDS011;35679;38.732;-121.358;2023-02-15T17:28:51;2.30;;;2.20;;
49784;SDS011;35679;38.732;-121.358;2023-02-15T17:31:47;2.30;;;2.20;;
49784;SDS011;35679;38.732;-121.358;2023-02-15T17:40:34;2.35;;;2.25;;
49784;SDS011;35679;38.732;-121.358;2023-02-15T17:43:24;2.10;;;2.00;;
49784;SDS011;35679;38.732;-121.358;2023-02-15T17:46:14;2.13;;;2.03;;
49784;SDS011;35679;38.732;-121.358;2023-02-15T17:49:14;2.00;;;2.00;;
49784;SDS011;35679;38.732;-121.358;2023-02-15T17:52:12;2.40;;;2.30;;
49784;SDS011;35679;38.732;-121.358;2023-02-15T17:55:07;2.13;;;2.03;;
49784;SDS011;35679;38.732;-121.358;2023-02-15T17:58:25;2.30;;;2.20;;
49784;SDS011;35679;38.732;-121.358;2023-02-15T18:01:16;2.08;;;1.98;;
49784;SDS011;35679;38.732;-121.358;2023-02-15T18:04:27;2.42;;;2.33;;
49784;SDS011;35679;38.732;-121.358;2023-02-15T18:07:34;2.42;;;2.22;;
49784;SDS011;35679;38.732;-121.358;2023-02-15T18:10:42;2.28;;;2.17;;
49784;SDS011;35679;38.732;-121.358;2023-02-15T18:13:51;2.13;;;2.03;;
49784;SDS011;35679;38.732;-121.358;2023-02-15T18:16:41;2.10;;;2.00;;
49784;SDS011;35679;38.732;-121.358;2023-02-15T18:19:38;2.22;;;2.13;;
49784;SDS011;35679;38.732;-121.358;2023-02-15T18:22:29;2.15;;;2.05;;
49784;SDS011;35679;38.732;-121.358;2023-02-15T18:25:20;2.00;;;2.00;;
49784;SDS011;35679;38.732;-121.358;2023-02-15T18:28:13;2.28;;;2.17;;
49784;SDS011;35679;38.732;-121.358;2023-02-15T18:31:02;2.10;;;2.00;;
49784;SDS011;35679;38.732;-121.358;2023-02-15T18:33:53;2.08;;;1.98;;
49784;SDS011;35679;38.732;-121.358;2023-02-15T18:36:45;2.45;;;2.10;;
49784;SDS011;35679;38.732;-121.358;2023-02-15T18:39:44;2.30;;;2.20;;
49784;SDS011;35679;38.732;-121.358;2023-02-15T18:42:34;2.15;;;2.05;;
49784;SDS011;35679;38.732;-121.358;2023-02-15T18:45:26;2.10;;;2.00;;
49784;SDS011;35679;38.732;-121.358;2023-02-15T18:48:20;2.08;;;2.00;;
49784;SDS011;35679;38.732;-121.358;2023-02-15T18:54:26;2.10;;;2.00;;
49784;SDS011;35679;38.732;-121.358;2023-02-15T18:57:17;2.28;;;2.17;;
49784;SDS011;35679;38.732;-121.358;2023-02-15T19:00:09;1.85;;;1.80;;
49784;SDS011;35679;38.732;-121.358;2023-02-15T19:03:03;2.30;;;2.20;;
49784;SDS011;35679;38.732;-121.358;2023-02-15T19:05:56;2.30;;;2.20;;
49784;SDS011;35679;38.732;-121.358;2023-02-15T19:08:49;2.35;;;2.25;;
49784;SDS011;35679;38.732;-121.358;2023-02-15T19:11:40;2.40;;;2.30;;
49784;SDS011;35679;38.732;-121.358;2023-02-15T19:14:35;2.08;;;2.00;;
49784;SDS011;35679;38.732;-121.358;2023-02-15T19:17:25;1.95;;;1.85;;
49784;SDS011;35679;38.732;-121.358;2023-02-15T19:20:18;2.00;;;1.90;;
49784;SDS011;35679;38.732;-121.358;2023-02-15T19:23:19;2.00;;;1.90;;
49784;SDS011;35679;38.732;-121.358;2023-02-15T19:26:12;2.10;;;2.00;;
49784;SDS011;35679;38.732;-121.358;2023-02-15T19:29:01;1.90;;;1.90;;
49784;SDS011;35679;38.732;-121.358;2023-02-15T19:31:50;1.92;;;1.88;;
49784;SDS011;35679;38.732;-121.358;2023-02-15T19:34:40;2.22;;;2.13;;
49784;SDS011;35679;38.732;-121.358;2023-02-15T19:37:32;2.10;;;2.00;;
49784;SDS011;35679;38.732;-121.358;2023-02-15T19:40:29;2.20;;;2.10;;
49784;SDS011;35679;38.732;-121.358;2023-02-15T19:43:22;1.95;;;1.85;;
49784;SDS011;35679;38.732;-121.358;2023-02-15T19:46:14;1.85;;;1.83;;